Time;durP1;ratioP1;P1;durP2;ratioP2;P2;SDS_P1;SDS_P2;PMS_P1;PMS_P2;Temp;Humidity;BMP_temperature;BMP_pressure;BME280_temperature;BME280_humidity;BME280_pressure;Samples;Min_cycle;Max_cycle;Signal;HPM_P1;HPM_P2
2023/10/26 00:00:09;;;;;;;;;;;10.00;99.90;;;9.78;100.00;95714.75;5009686;28;1898;-83
2023/10/26 00:02:36;;;;;;;;;;;10.00;99.90;;;9.81;100.00;95721.47;4960497;28;1499;-83
2023/10/26 00:05:04;;;;;;;;;;;10.00;99.90;;;9.88;100.00;95725.31;5003010;28;1808;-83
2023/10/26 00:07:31;;;;;;;;;;;10.10;99.90;;;9.86;100.00;95715.97;5013328;28;2051;-84
2023/10/26 00:09:58;;;;;;;;;;;10.00;99.90;;;9.89;100.00;95723.53;4983435;28;1487;-84
2023/10/26 00:12:25;;;;;;;;;;;10.00;99.90;;;9.74;100.00;95728.84;4967161;28;1967;-83
2023/10/26 00:14:52;;;;;;;;;;;10.00;99.90;;;9.85;100.00;95720.31;4987955;28;1501;-84
2023/10/26 00:17:19;;;;;;;;;;;10.00;99.90;;;9.79;100.00;95710.38;4971179;28;2176;-83
2023/10/26 00:19:46;;;;;;;;;;;10.00;99.90;;;9.71;100.00;95730.81;4982661;28;1970;-83
2023/10/26 00:22:13;;;;;;;;;;;10.10;99.90;;;9.80;100.00;95722.41;4978239;28;1553;-82
2023/10/26 00:24:40;;;;;;;;;;;10.00;99.90;;;9.71;100.00;95717.84;4980442;28;1460;-84
2023/10/26 00:27:07;;;;;;;;;;;10.00;99.90;;;9.82;100.00;95720.53;4985871;28;1503;-84
2023/10/26 00:29:34;;;;;;;;;;;10.00;99.90;;;9.82;100.00;95721.34;4997578;28;1373;-84
2023/10/26 00:32:03;;;;;;;;;;;10.00;99.90;;;9.79;100.00;95731.13;5016006;28;1450;-84
2023/10/26 00:34:30;;;;;;;;;;;10.00;99.90;;;9.76;100.00;95734.75;4982484;28;1841;-84
2023/10/26 00:36:57;;;;;;;;;;;10.00;99.90;;;9.74;100.00;95722.81;4978601;28;1816;-83
2023/10/26 00:39:24;;;;;;;;;;;10.00;99.90;;;9.73;100.00;95723.75;4982893;28;1987;-83
2023/10/26 00:41:52;;;;;;;;;;;10.00;99.90;;;9.74;100.00;95730.59;5014849;28;1779;-84
2023/10/26 00:44:22;;;;;;;;;;;10.00;99.90;;;9.76;100.00;95732.16;4982818;28;1435;-84
2023/10/26 00:46:51;;;;;;;;;;;10.00;99.90;;;9.74;100.00;95736.63;4985367;28;1650;-84
2023/10/26 00:49:18;;;;;;;;;;;9.90;99.90;;;9.77;100.00;95740.75;4984683;28;1583;-83
2023/10/26 00:51:55;;;;;;;;;;;9.90;99.90;;;9.79;100.00;95741.47;5003228;28;1711;-84
2023/10/26 00:54:22;;;;;;;;;;;9.90;99.90;;;9.79;100.00;95737.13;4987848;28;1480;-83
2023/10/26 00:56:50;;;;;;;;;;;9.90;99.90;;;9.86;100.00;95747.06;4974582;28;1233;-84
2023/10/26 00:59:17;;;;;;;;;;;9.90;99.90;;;9.88;100.00;95750.41;4995487;28;2005;-83
2023/10/26 01:01:46;;;;;;;;;;;9.90;99.90;;;9.82;100.00;95749.84;4966316;28;1382;-84
2023/10/26 01:04:15;;;;;;;;;;;9.90;99.90;;;9.86;100.00;95755.66;4971929;28;1545;-84
2023/10/26 01:06:43;;;;;;;;;;;9.90;99.90;;;9.80;100.00;95754.31;4986316;28;1614;-84
2023/10/26 01:09:10;;;;;;;;;;;9.90;99.90;;;9.74;100.00;95757.34;4963697;28;1558;-85
2023/10/26 01:11:39;;;;;;;;;;;9.90;99.90;;;9.78;100.00;95758.81;5011649;28;1705;-85
2023/10/26 01:14:07;;;;;;;;;;;9.90;99.90;;;9.83;100.00;95764.50;4989956;28;1496;-83
2023/10/26 01:16:35;;;;;;;;;;;9.80;99.90;;;9.78;100.00;95758.81;4972406;28;1567;-84
2023/10/26 01:19:03;;;;;;;;;;;9.90;99.90;;;9.83;100.00;95763.66;4970892;28;1907;-84
2023/10/26 01:21:31;;;;;;;;;;;9.90;99.90;;;9.87;100.00;95765.09;5001938;28;1532;-83
2023/10/26 01:24:06;;;;;;;;;;;9.90;99.90;;;9.74;100.00;95774.63;5018627;28;1959;-83
2023/10/26 01:26:40;;;;;;;;;;;10.00;99.90;;;9.68;100.00;95772.47;4984619;28;1723;-83
2023/10/26 01:29:12;;;;;;;;;;;10.00;99.90;;;9.67;100.00;95765.63;4986695;28;1484;-84
2023/10/26 01:31:48;;;;;;;;;;;9.90;99.90;;;9.56;100.00;95790.50;4987338;28;1507;-83
2023/10/26 01:34:19;;;;;;;;;;;9.80;99.90;;;9.58;100.00;95780.88;4973235;28;1632;-83
2023/10/26 01:36:48;;;;;;;;;;;9.80;99.90;;;9.51;100.00;95784.81;4985292;28;1277;-83
2023/10/26 01:39:17;;;;;;;;;;;9.80;99.90;;;9.46;100.00;95792.03;4985055;28;2004;-84
2023/10/26 01:41:52;;;;;;;;;;;9.70;99.90;;;9.43;100.00;95792.25;4991034;28;1684;-83
2023/10/26 01:44:28;;;;;;;;;;;9.70;99.90;;;9.43;100.00;95787.06;4983120;28;1675;-83
2023/10/26 01:47:10;;;;;;;;;;;9.70;99.90;;;9.40;100.00;95789.88;4987483;28;1253;-84
2023/10/26 01:49:40;;;;;;;;;;;9.70;99.90;;;9.32;100.00;95792.94;4985562;28;1217;-83
2023/10/26 01:52:10;;;;;;;;;;;9.70;99.90;;;9.29;100.00;95795.75;4988678;28;1399;-83
2023/10/26 01:54:43;;;;;;;;;;;9.60;99.90;;;9.34;100.00;95801.44;5000332;28;1449;-83
2023/10/26 01:57:27;;;;;;;;;;;9.60;99.90;;;9.28;100.00;95788.91;5014791;28;1313;-83
2023/10/26 01:59:55;;;;;;;;;;;9.60;99.90;;;9.31;100.00;95798.25;4991265;28;1899;-83
2023/10/26 02:02:32;;;;;;;;;;;9.50;99.90;;;9.18;100.00;95800.81;4981658;28;1406;-83
2023/10/26 02:04:59;;;;;;;;;;;9.60;99.90;;;9.23;100.00;95801.31;4984779;28;1540;-83
2023/10/26 02:07:37;;;;;;;;;;;9.60;99.90;;;9.09;100.00;95816.94;4972803;28;1526;-83
2023/10/26 02:10:07;;;;;;;;;;;9.60;99.90;;;9.30;100.00;95804.34;4994796;28;1823;-84
2023/10/26 02:12:40;;;;;;;;;;;9.50;99.90;;;9.24;100.00;95815.94;4989860;28;1419;-84
2023/10/26 02:15:13;;;;;;;;;;;9.50;99.90;;;9.27;100.00;95804.56;4985684;28;1380;-84
2023/10/26 02:17:43;;;;;;;;;;;9.50;99.90;;;9.25;100.00;95814.19;4991712;28;1202;-84
2023/10/26 02:20:19;;;;;;;;;;;9.50;99.90;;;9.19;100.00;95811.06;4994861;28;1902;-82
2023/10/26 02:22:47;;;;;;;;;;;9.50;99.90;;;9.17;100.00;95810.34;4994783;28;1523;-84
2023/10/26 02:25:20;;;;;;;;;;;9.50;99.90;;;9.31;100.00;95813.78;4987024;28;1519;-83
2023/10/26 02:27:50;;;;;;;;;;;9.50;99.90;;;9.24;100.00;95807.31;5003028;28;1758;-84
2023/10/26 02:30:17;;;;;;;;;;;9.50;99.90;;;9.13;100.00;95824.41;4985106;28;1334;-84
2023/10/26 02:32:45;;;;;;;;;;;9.50;99.90;;;9.29;100.00;95813.88;4989244;28;1482;-84
2023/10/26 02:35:16;;;;;;;;;;;9.50;99.90;;;9.25;100.00;95821.94;4987948;28;1376;-83
2023/10/26 02:37:47;;;;;;;;;;;9.50;99.90;;;9.36;100.00;95820.31;4980449;28;1845;-83
2023/10/26 02:40:17;;;;;;;;;;;9.50;99.90;;;9.24;100.00;95818.53;4980911;28;1993;-83
2023/10/26 02:42:49;;;;;;;;;;;9.50;99.90;;;9.24;100.00;95813.34;4982331;28;1531;-84
2023/10/26 02:45:25;;;;;;;;;;;9.60;99.90;;;9.33;100.00;95817.09;4989119;28;1544;-83
2023/10/26 02:48:05;;;;;;;;;;;9.50;99.90;;;9.30;100.00;95809.53;4982785;28;1587;-82
2023/10/26 02:50:34;;;;;;;;;;;9.60;99.90;;;9.27;100.00;95818.31;4984750;28;1397;-83
2023/10/26 02:53:20;;;;;;;;;;;9.50;99.90;;;9.22;100.00;95815.22;4982617;28;1645;-84
2023/10/26 02:56:02;;;;;;;;;;;9.60;99.90;;;9.17;100.00;95812.94;4974158;28;1650;-83
2023/10/26 02:58:36;;;;;;;;;;;9.50;99.90;;;9.20;100.00;95811.88;4981781;28;1682;-82
2023/10/26 03:01:03;;;;;;;;;;;9.50;99.90;;;9.28;100.00;95807.03;4985463;28;1464;-84
2023/10/26 03:03:42;;;;;;;;;;;9.60;99.90;;;9.32;100.00;95812.84;4980495;28;1718;-84
2023/10/26 03:06:15;;;;;;;;;;;9.50;99.90;;;9.20;100.00;95812.72;4986136;28;1337;-83
2023/10/26 03:08:46;;;;;;;;;;;9.50;99.90;;;9.27;100.00;95799.38;4995642;28;1605;-84
2023/10/26 03:11:19;;;;;;;;;;;9.50;99.90;;;9.32;100.00;95803.31;4997708;28;1314;-83
2023/10/26 03:13:49;;;;;;;;;;;9.60;99.90;;;9.21;100.00;95810.94;4972815;28;1429;-84
2023/10/26 03:16:31;;;;;;;;;;;9.50;99.90;;;9.34;100.00;95813.56;4975201;28;1556;-84
2023/10/26 03:19:04;;;;;;;;;;;9.60;99.90;;;9.33;100.00;95811.94;4983091;28;1970;-83
2023/10/26 03:21:32;;;;;;;;;;;9.60;99.90;;;9.46;100.00;95807.56;5014230;28;1389;-83
2023/10/26 03:24:04;;;;;;;;;;;9.60;99.90;;;9.17;100.00;95814.69;4987850;28;1566;-84
2023/10/26 03:26:35;;;;;;;;;;;9.60;99.90;;;9.16;100.00;95803.47;4983250;28;1613;-83
2023/10/26 03:29:12;;;;;;;;;;;9.60;99.90;;;9.26;100.00;95801.16;4982343;28;1515;-84
2023/10/26 03:31:43;;;;;;;;;;;9.60;99.90;;;9.36;100.00;95806.53;4986020;28;1349;-82
2023/10/26 03:34:13;;;;;;;;;;;9.60;99.90;;;9.36;100.00;95809.94;4972584;28;1352;-84
2023/10/26 03:36:46;;;;;;;;;;;9.60;99.90;;;9.43;100.00;95810.38;4984237;28;1679;-83
2023/10/26 03:39:16;;;;;;;;;;;9.50;99.90;;;9.43;100.00;95807.78;4983744;28;1984;-84
2023/10/26 03:41:51;;;;;;;;;;;9.50;99.90;;;9.30;100.00;95807.75;4985037;28;1485;-84
2023/10/26 03:44:18;;;;;;;;;;;9.50;99.90;;;9.28;100.00;95806.19;4984227;28;1536;-84
2023/10/26 03:46:46;;;;;;;;;;;9.40;99.90;;;9.33;100.00;95798.97;4981777;28;1658;-84
2023/10/26 03:49:13;;;;;;;;;;;9.50;99.90;;;9.39;100.00;95808.91;4971331;28;1393;-84
2023/10/26 03:51:40;;;;;;;;;;;9.50;99.90;;;9.43;100.00;95807.78;4982515;28;1646;-84
2023/10/26 03:54:07;;;;;;;;;;;9.50;99.90;;;9.37;100.00;95808.19;5015179;28;1446;-84
2023/10/26 03:56:34;;;;;;;;;;;9.50;99.90;;;9.47;100.00;95811.84;4986714;28;1561;-84
2023/10/26 03:59:01;;;;;;;;;;;9.50;99.90;;;9.48;100.00;95815.25;4983608;28;2005;-83
2023/10/26 04:01:28;;;;;;;;;;;9.60;99.90;;;9.38;100.00;95815.03;4985800;28;1701;-84
2023/10/26 04:03:54;;;;;;;;;;;9.50;99.90;;;9.32;100.00;95815.44;4983849;28;1716;-84
2023/10/26 04:06:21;;;;;;;;;;;9.50;99.90;;;9.41;100.00;95813.06;4985715;28;1763;-84
2023/10/26 04:08:48;;;;;;;;;;;9.60;99.90;;;9.53;100.00;95814.00;4989532;28;1837;-84
2023/10/26 04:11:18;;;;;;;;;;;9.60;99.90;;;9.32;100.00;95813.66;4968262;28;1761;-83
2023/10/26 04:13:45;;;;;;;;;;;9.60;99.90;;;9.36;100.00;95814.31;4967522;28;1762;-84
2023/10/26 04:16:12;;;;;;;;;;;9.60;99.90;;;9.21;100.00;95813.53;4966822;28;1468;-83
2023/10/26 04:18:39;;;;;;;;;;;9.70;99.90;;;9.43;100.00;95816.38;4996907;28;1634;-84
2023/10/26 04:21:06;;;;;;;;;;;9.70;99.90;;;9.40;100.00;95815.75;4971849;28;2153;-84
2023/10/26 04:23:33;;;;;;;;;;;9.70;99.90;;;9.37;100.00;95819.38;4989490;28;1663;-84
2023/10/26 04:26:00;;;;;;;;;;;9.70;99.90;;;9.53;100.00;95816.59;4969978;28;1716;-83
2023/10/26 04:28:27;;;;;;;;;;;9.70;99.90;;;9.41;100.00;95814.81;5010957;28;1450;-83
2023/10/26 04:31:00;;;;;;;;;;;9.70;99.90;;;9.36;100.00;95811.72;4979932;28;1557;-83
2023/10/26 04:33:27;;;;;;;;;;;9.70;99.90;;;9.48;100.00;95807.47;4985491;28;1490;-84
2023/10/26 04:35:54;;;;;;;;;;;9.70;99.90;;;9.50;100.00;95806.44;4989370;28;1437;-83
2023/10/26 04:38:21;;;;;;;;;;;9.70;99.90;;;9.36;100.00;95803.94;4983921;28;1416;-85
2023/10/26 04:40:48;;;;;;;;;;;9.70;99.90;;;9.44;100.00;95799.06;5000174;28;1910;-84
2023/10/26 04:43:15;;;;;;;;;;;9.70;99.90;;;9.28;100.00;95804.44;5012319;28;1818;-84
2023/10/26 04:45:42;;;;;;;;;;;9.60;99.90;;;9.38;100.00;95797.72;4982621;28;1570;-85
2023/10/26 04:48:09;;;;;;;;;;;9.60;99.90;;;9.20;100.00;95806.72;4982382;28;1688;-84
2023/10/26 04:50:36;;;;;;;;;;;9.60;99.90;;;9.34;100.00;95798.84;4999052;28;1469;-83
2023/10/26 04:53:04;;;;;;;;;;;9.60;99.90;;;9.30;100.00;95794.81;4988757;28;1597;-83
2023/10/26 04:55:33;;;;;;;;;;;9.60;99.90;;;9.35;100.00;95799.69;5013748;28;1474;-84
2023/10/26 04:58:01;;;;;;;;;;;9.60;99.90;;;9.37;100.00;95803.84;4997548;28;1588;-84
2023/10/26 05:00:28;;;;;;;;;;;9.60;99.90;;;9.28;100.00;95804.44;4981552;28;2001;-84
2023/10/26 05:02:55;;;;;;;;;;;9.60;99.90;;;9.26;100.00;95802.88;4982446;28;1818;-84
2023/10/26 05:05:22;;;;;;;;;;;9.60;99.90;;;9.31;100.00;95808.59;4982278;28;2056;-84
2023/10/26 05:07:49;;;;;;;;;;;9.70;99.90;;;9.29;100.00;95800.94;4987480;28;1666;-84
2023/10/26 05:10:16;;;;;;;;;;;9.60;99.90;;;9.30;100.00;95801.75;4982769;28;1610;-84
2023/10/26 05:12:43;;;;;;;;;;;9.60;99.90;;;9.38;100.00;95797.72;4986299;28;1555;-84
2023/10/26 05:15:10;;;;;;;;;;;9.70;99.90;;;9.46;100.00;95799.81;4997316;28;1745;-84
2023/10/26 05:17:37;;;;;;;;;;;9.70;99.90;;;9.50;100.00;95800.44;4978777;28;1479;-85
2023/10/26 05:20:06;;;;;;;;;;;9.70;99.90;;;9.47;100.00;95796.28;4971200;28;1967;-84
2023/10/26 05:22:34;;;;;;;;;;;9.70;99.90;;;9.53;100.00;95795.88;5000697;28;1503;-84
2023/10/26 05:25:04;;;;;;;;;;;9.70;99.90;;;9.40;100.00;95787.28;4979991;28;1631;-84
2023/10/26 05:27:34;;;;;;;;;;;9.70;99.90;;;9.44;100.00;95791.31;4986738;28;1692;-85
2023/10/26 05:30:04;;;;;;;;;;;9.70;99.90;;;9.43;100.00;95789.66;4984192;28;1484;-84
2023/10/26 05:32:31;;;;;;;;;;;9.70;99.90;;;9.44;100.00;95788.72;5009805;28;1554;-84
2023/10/26 05:34:59;;;;;;;;;;;9.70;99.90;;;9.61;100.00;95787.59;4999388;28;1458;-83
2023/10/26 05:37:26;;;;;;;;;;;9.70;99.90;;;9.63;100.00;95790.91;4985610;28;1558;-84
2023/10/26 05:39:53;;;;;;;;;;;9.70;99.90;;;9.55;100.00;95781.06;4969675;28;1914;-84
2023/10/26 05:42:20;;;;;;;;;;;9.70;99.90;;;9.63;100.00;95778.78;4970774;28;1620;-84
2023/10/26 05:44:47;;;;;;;;;;;9.60;99.90;;;9.72;100.00;95776.53;5011254;28;1672;-85
2023/10/26 05:47:15;;;;;;;;;;;9.70;99.90;;;9.73;100.00;95775.56;4984057;28;1858;-84
2023/10/26 05:49:46;;;;;;;;;;;9.80;99.90;;;9.58;100.00;95782.63;4992406;28;1640;-84
2023/10/26 05:52:16;;;;;;;;;;;9.80;99.90;;;9.42;100.00;95781.06;4978309;28;1671;-84
2023/10/26 05:54:43;;;;;;;;;;;9.90;99.90;;;9.54;100.00;95776.00;4998297;28;1746;-84
2023/10/26 05:57:10;;;;;;;;;;;9.80;99.90;;;9.40;100.00;95782.09;4985729;28;1535;-84
2023/10/26 05:59:37;;;;;;;;;;;9.80;99.90;;;9.46;100.00;95786.03;4983166;28;1898;-84
2023/10/26 06:02:04;;;;;;;;;;;9.80;99.90;;;9.45;100.00;95792.16;4996512;28;1527;-84
2023/10/26 06:04:31;;;;;;;;;;;9.80;99.90;;;9.37;100.00;95783.13;4971358;28;1504;-84
2023/10/26 06:06:59;;;;;;;;;;;9.80;99.90;;;9.50;100.00;95774.53;4972099;28;1568;-84
2023/10/26 06:09:26;;;;;;;;;;;9.80;99.90;;;9.56;100.00;95774.97;4983366;28;2223;-83
2023/10/26 06:11:53;;;;;;;;;;;9.80;99.90;;;9.51;100.00;95777.03;4995791;28;2084;-84
2023/10/26 06:14:20;;;;;;;;;;;9.80;99.90;;;9.52;100.00;95768.31;4985171;28;1403;-84
2023/10/26 06:16:47;;;;;;;;;;;9.80;99.90;;;9.56;100.00;95771.53;4967813;28;2044;-84
2023/10/26 06:19:14;;;;;;;;;;;9.80;99.90;;;9.50;100.00;95775.34;4981199;28;1440;-84
2023/10/26 06:21:41;;;;;;;;;;;9.80;99.90;;;9.63;100.00;95781.38;4974864;28;2001;-84
2023/10/26 06:24:09;;;;;;;;;;;9.80;99.90;;;9.74;100.00;95766.84;5013224;28;1565;-84
2023/10/26 06:26:36;;;;;;;;;;;9.80;99.90;;;9.55;100.00;95767.28;4979336;28;1379;-83
2023/10/26 06:29:03;;;;;;;;;;;9.80;99.90;;;9.62;100.00;95768.53;4982838;28;1189;-84
2023/10/26 06:31:30;;;;;;;;;;;9.90;99.90;;;9.61;100.00;95775.47;4982783;28;1408;-85
2023/10/26 06:33:57;;;;;;;;;;;9.90;99.90;;;9.68;100.00;95775.06;4984980;28;1456;-85
2023/10/26 06:36:24;;;;;;;;;;;9.90;99.90;;;9.66;100.00;95776.94;4983636;28;1395;-84
2023/10/26 06:38:54;;;;;;;;;;;9.90;99.90;;;9.69;100.00;95785.31;4995324;28;1588;-85
2023/10/26 06:41:21;;;;;;;;;;;9.80;99.90;;;9.64;100.00;95777.84;4976321;28;2087;-84
2023/10/26 06:43:48;;;;;;;;;;;9.80;99.90;;;9.62;100.00;95774.56;4985904;28;1476;-84
2023/10/26 06:46:15;;;;;;;;;;;9.80;99.90;;;9.68;100.00;95768.13;4967682;28;1521;-84
2023/10/26 06:48:41;;;;;;;;;;;9.90;99.90;;;9.71;100.00;95777.44;4981220;28;1425;-84
2023/10/26 06:51:09;;;;;;;;;;;9.90;99.90;;;9.61;100.00;95775.47;4982053;28;1421;-84
2023/10/26 06:53:36;;;;;;;;;;;10.00;99.90;;;9.69;100.00;95772.34;4960098;28;1621;-84
2023/10/26 06:56:10;;;;;;;;;;;10.00;99.90;;;9.86;100.00;95770.41;4967794;28;1545;-84
2023/10/26 06:58:39;;;;;;;;;;;10.00;99.90;;;9.87;100.00;95772.03;4967934;28;1679;-85
2023/10/26 07:01:07;;;;;;;;;;;10.10;99.90;;;9.82;100.00;95762.81;4993048;28;1984;-85
2023/10/26 07:03:48;;;;;;;;;;;10.10;99.90;;;10.03;100.00;95770.03;4980222;28;1629;-84
2023/10/26 07:06:15;;;;;;;;;;;10.20;99.90;;;10.09;100.00;95763.63;4969671;28;1676;-84
2023/10/26 07:08:43;;;;;;;;;;;10.30;99.90;;;10.02;100.00;95761.44;5009962;28;1480;-85
2023/10/26 07:11:11;;;;;;;;;;;10.30;99.90;;;9.87;100.00;95759.91;4994329;28;1616;-84
2023/10/26 07:13:38;;;;;;;;;;;10.20;99.90;;;10.02;100.00;95755.44;4968298;28;1884;-85
2023/10/26 07:16:05;;;;;;;;;;;10.20;99.90;;;10.19;100.00;95759.44;4985290;28;1508;-85
2023/10/26 07:18:33;;;;;;;;;;;10.20;99.90;;;10.43;100.00;95743.94;4968250;28;1606;-84
2023/10/26 07:21:07;;;;;;;;;;;10.20;99.90;;;10.62;100.00;95738.25;5010978;28;1914;-84
2023/10/26 07:23:35;;;;;;;;;;;10.30;99.90;;;10.61;100.00;95728.84;4978989;28;1799;-84
2023/10/26 07:26:02;;;;;;;;;;;10.50;99.90;;;10.46;100.00;95748.91;4992659;28;1588;-84
2023/10/26 07:28:29;;;;;;;;;;;10.60;99.90;;;10.25;100.00;95740.88;4978309;28;1533;-84
2023/10/26 07:30:56;;;;;;;;;;;10.50;99.90;;;10.23;100.00;95753.09;4983524;28;1607;-84
2023/10/26 07:33:24;;;;;;;;;;;10.40;99.90;;;10.24;100.00;95753.00;4962433;28;1631;-84
2023/10/26 07:35:56;;;;;;;;;;;10.40;99.90;;;10.29;100.00;95752.72;4989179;28;1559;-83
2023/10/26 07:38:24;;;;;;;;;;;10.40;99.90;;;10.42;100.00;95744.88;5012519;28;1437;-84
2023/10/26 07:41:04;;;;;;;;;;;10.40;99.90;;;10.74;100.00;95736.53;4998106;28;1910;-85
2023/10/26 07:43:34;;;;;;;;;;;10.60;99.90;;;11.01;100.00;95731.91;4970921;28;1515;-85
2023/10/26 07:46:01;;;;;;;;;;;10.70;99.90;;;10.78;100.00;95749.19;4990875;28;1423;-84
2023/10/26 07:48:30;;;;;;;;;;;10.90;99.90;;;10.81;100.00;95741.19;4985145;28;1382;-84
2023/10/26 07:50:58;;;;;;;;;;;10.90;99.90;;;10.85;100.00;95734.00;4965178;28;1618;-84
2023/10/26 07:53:28;;;;;;;;;;;11.00;99.90;;;11.24;100.00;95719.84;4997322;28;1644;-84
2023/10/26 07:55:57;;;;;;;;;;;11.10;99.90;;;11.45;100.00;95724.38;4987525;28;1607;-84
2023/10/26 07:58:26;;;;;;;;;;;11.20;99.90;;;11.25;100.00;95731.06;5018390;28;1722;-84
2023/10/26 08:00:53;;;;;;;;;;;11.30;99.90;;;11.15;100.00;95743.88;4985604;28;2107;-84
2023/10/26 08:03:20;;;;;;;;;;;11.20;99.90;;;11.11;100.00;95745.06;4985786;28;1785;-84
2023/10/26 08:06:04;;;;;;;;;;;11.20;99.90;;;11.03;100.00;95750.81;4971257;28;1547;-84
2023/10/26 08:08:31;;;;;;;;;;;11.30;99.90;;;10.98;100.00;95749.50;5001002;28;1667;-85
2023/10/26 08:11:12;;;;;;;;;;;11.20;99.90;;;11.13;100.00;95750.97;4969782;28;1625;-84
2023/10/26 08:13:40;;;;;;;;;;;11.30;99.90;;;10.78;100.00;95746.59;5014194;28;1434;-84
2023/10/26 08:16:07;;;;;;;;;;;11.20;99.90;;;10.81;100.00;95741.19;4983067;28;1433;-84
2023/10/26 08:18:54;;;;;;;;;;;11.20;99.90;;;10.93;100.00;95754.22;5004197;28;1428;-84
2023/10/26 08:21:21;;;;;;;;;;;11.10;99.90;;;10.75;100.00;95754.59;4978159;28;2093;-85
2023/10/26 08:23:49;;;;;;;;;;;11.00;99.90;;;10.76;100.00;95756.25;5003114;28;1500;-84
2023/10/26 08:26:16;;;;;;;;;;;10.80;99.90;;;10.47;100.00;95779.13;4968804;28;1454;-84
2023/10/26 08:28:43;;;;;;;;;;;10.80;99.90;;;10.55;100.00;95797.53;5012289;28;1693;-84
2023/10/26 08:31:10;;;;;;;;;;;10.70;99.90;;;10.51;100.00;95806.47;4997954;28;1910;-84
2023/10/26 08:33:37;;;;;;;;;;;10.60;99.90;;;10.41;100.00;95811.47;4984403;28;1909;-85
2023/10/26 08:36:05;;;;;;;;;;;10.60;99.90;;;10.42;100.00;95818.34;5002214;28;1511;-84
2023/10/26 08:38:32;;;;;;;;;;;10.60;99.90;;;10.34;100.00;95823.22;4971210;28;1509;-85
2023/10/26 08:41:00;;;;;;;;;;;10.50;99.90;;;10.39;100.00;95828.91;4982267;28;1918;-85
2023/10/26 08:43:28;;;;;;;;;;;10.50;99.90;;;10.23;100.00;95815.34;4984326;28;1635;-85
2023/10/26 08:45:58;;;;;;;;;;;10.50;99.90;;;10.31;100.00;95807.91;4980807;28;1559;-85
2023/10/26 08:48:25;;;;;;;;;;;10.50;99.90;;;10.33;100.00;95819.00;4987220;28;1569;-85
2023/10/26 08:50:53;;;;;;;;;;;10.60;99.90;;;10.29;100.00;95822.72;4995359;28;1646;-84
2023/10/26 08:53:20;;;;;;;;;;;10.50;99.90;;;10.37;100.00;95827.38;5008695;28;1651;-84
2023/10/26 08:55:47;;;;;;;;;;;10.50;99.90;;;10.26;100.00;95821.16;4975930;28;1536;-85
2023/10/26 08:58:14;;;;;;;;;;;10.40;99.90;;;10.23;100.00;95836.91;4974374;28;1546;-85
2023/10/26 09:00:41;;;;;;;;;;;10.40;99.90;;;10.38;100.00;95832.47;4986547;28;1980;-84
2023/10/26 09:03:08;;;;;;;;;;;10.40;99.90;;;10.35;100.00;95822.28;5007366;28;1458;-85
2023/10/26 09:06:05;;;;;;;;;;;10.40;99.90;;;10.46;100.00;95804.19;4995454;28;1495;-85
2023/10/26 09:08:32;;;;;;;;;;;10.40;99.90;;;10.38;100.00;95808.28;4977559;28;1626;-84
2023/10/26 09:11:01;;;;;;;;;;;10.50;99.90;;;10.37;100.00;95812.63;4962061;28;2085;-85
2023/10/26 09:13:29;;;;;;;;;;;10.40;99.90;;;10.41;100.00;95810.66;5008956;28;1898;-84
2023/10/26 09:15:58;;;;;;;;;;;10.50;99.90;;;10.35;100.00;95821.47;4999944;28;2020;-84
2023/10/26 09:18:26;;;;;;;;;;;10.50;99.90;;;10.35;100.00;95818.88;5007290;28;1927;-85
2023/10/26 09:21:06;;;;;;;;;;;10.50;99.90;;;10.65;100.00;95800.31;4985527;28;2075;-84
2023/10/26 09:23:37;;;;;;;;;;;10.60;99.90;;;10.63;100.00;95800.44;4984468;28;2047;-84
2023/10/26 09:26:07;;;;;;;;;;;10.70;99.90;;;10.66;100.00;95804.56;4984031;28;2093;-85
2023/10/26 09:28:55;;;;;;;;;;;10.70;99.90;;;10.68;100.00;95819.09;4985983;28;1537;-84
2023/10/26 09:31:23;;;;;;;;;;;10.60;99.90;;;10.72;100.00;95814.53;4984944;28;1556;-84
2023/10/26 09:33:50;;;;;;;;;;;10.70;99.90;;;10.68;100.00;95805.28;4965630;28;2191;-84
2023/10/26 09:36:19;;;;;;;;;;;10.70;99.90;;;10.73;100.00;95795.41;4961726;28;1484;-83
2023/10/26 09:38:50;;;;;;;;;;;10.80;99.90;;;10.97;100.00;95790.22;4978648;28;1666;-84
2023/10/26 09:41:18;;;;;;;;;;;10.90;99.90;;;11.18;100.00;95792.19;4983466;28;1891;-84
2023/10/26 09:43:47;;;;;;;;;;;11.00;99.90;;;11.32;100.00;95798.97;4982832;28;1543;-84
2023/10/26 09:46:14;;;;;;;;;;;11.10;99.90;;;11.42;100.00;95798.16;4964461;28;1707;-84
2023/10/26 09:48:42;;;;;;;;;;;11.20;99.90;;;11.25;100.00;95794.22;4986416;28;1509;-84
2023/10/26 09:51:14;;;;;;;;;;;11.20;99.90;;;11.41;100.00;95783.50;5010166;28;1379;-83
2023/10/26 09:53:42;;;;;;;;;;;11.30;99.90;;;11.28;100.00;95765.41;4999028;28;1559;-83
2023/10/26 09:56:19;;;;;;;;;;;11.30;99.90;;;11.26;100.00;95782.88;4964979;28;1501;-83
2023/10/26 09:58:46;;;;;;;;;;;11.40;99.90;;;11.02;100.00;95789.88;4996190;28;1833;-84
2023/10/26 10:01:37;;;;;;;;;;;11.30;99.90;;;11.19;100.00;95779.06;4975124;28;1898;-83
2023/10/26 10:04:05;;;;;;;;;;;11.30;99.90;;;11.24;100.00;95784.78;4994448;28;1575;-84
2023/10/26 10:06:51;;;;;;;;;;;11.40;99.90;;;11.43;100.00;95796.41;4991176;28;1930;-84
2023/10/26 10:09:23;;;;;;;;;;;11.30;99.90;;;11.42;100.00;95786.94;4997557;28;2141;-84
2023/10/26 10:12:11;;;;;;;;;;;11.40;99.90;;;11.41;100.00;95793.91;4963876;28;1547;-83
2023/10/26 10:14:46;;;;;;;;;;;11.40;99.90;;;11.37;100.00;95792.47;4978600;28;1751;-83
2023/10/26 10:17:18;;;;;;;;;;;11.50;99.90;;;11.30;100.00;95789.50;5011496;28;1521;-84
2023/10/26 10:20:14;;;;;;;;;;;11.50;99.90;;;11.31;100.00;95785.13;4994634;28;1633;-84
2023/10/26 10:22:45;;;;;;;;;;;11.40;99.90;;;11.42;100.00;95794.72;4975843;28;1906;-84
2023/10/26 10:25:13;;;;;;;;;;;11.50;99.90;;;11.12;100.00;95805.63;5005556;28;1870;-84
2023/10/26 10:28:00;;;;;;;;;;;11.40;99.90;;;11.05;100.00;95803.47;4975819;28;1510;-84
2023/10/26 10:30:29;;;;;;;;;;;11.40;99.90;;;10.85;100.00;95798.88;4977986;28;1546;-84
2023/10/26 10:32:57;;;;;;;;;;;11.30;99.90;;;10.88;100.00;95804.69;4978641;28;1413;-83
2023/10/26 10:35:43;;;;;;;;;;;11.20;99.90;;;10.90;100.00;95794.19;4981936;28;1649;-85
2023/10/26 10:38:17;;;;;;;;;;;11.10;99.90;;;11.22;100.00;95772.81;4982801;28;2108;-84
2023/10/26 10:40:53;;;;;;;;;;;11.20;99.90;;;11.25;100.00;95762.22;4998555;28;1906;-84
2023/10/26 10:43:45;;;;;;;;;;;11.30;99.90;;;11.27;100.00;95750.78;4979827;28;1403;-85
2023/10/26 10:46:12;;;;;;;;;;;11.30;99.90;;;11.17;100.00;95743.78;5007559;28;1501;-84
2023/10/26 10:49:05;;;;;;;;;;;11.30;99.90;;;11.00;100.00;95732.88;4977950;28;1442;-84
2023/10/26 10:51:42;;;;;;;;;;;11.30;99.90;;;11.08;100.00;95742.69;4990489;28;1705;-85
2023/10/26 10:54:15;;;;;;;;;;;11.30;99.90;;;11.04;100.00;95734.31;4981609;28;1453;-83
2023/10/26 10:57:04;;;;;;;;;;;11.30;99.90;;;10.78;100.00;95720.63;5004345;28;2106;-84
2023/10/26 10:59:31;;;;;;;;;;;11.20;99.90;;;10.89;100.00;95719.84;4977201;28;1381;-85
2023/10/26 11:02:10;;;;;;;;;;;11.20;99.90;;;10.67;100.00;95724.03;4965960;28;1938;-84
2023/10/26 11:04:52;;;;;;;;;;;11.10;99.90;;;10.78;100.00;95712.84;4965683;28;1317;-85
2023/10/26 11:07:31;;;;;;;;;;;11.00;99.90;;;10.87;100.00;95726.94;4992638;28;1561;-85
2023/10/26 11:10:00;;;;;;;;;;;11.00;99.90;;;11.07;100.00;95718.50;4993620;28;1451;-85
2023/10/26 11:12:27;;;;;;;;;;;11.10;99.90;;;11.25;100.00;95707.69;4982057;28;1548;-84
2023/10/26 11:14:56;;;;;;;;;;;11.20;99.90;;;11.10;100.00;95704.47;4981669;28;1661;-84
2023/10/26 11:17:24;;;;;;;;;;;11.20;99.90;;;11.14;100.00;95705.88;4978334;28;1742;-85
2023/10/26 11:19:51;;;;;;;;;;;11.30;99.90;;;11.33;100.00;95709.69;4977845;28;1544;-84
2023/10/26 11:22:19;;;;;;;;;;;11.40;99.90;;;11.42;100.00;95715.00;4979364;28;1907;-83
2023/10/26 11:24:46;;;;;;;;;;;11.50;99.90;;;11.54;100.00;95708.09;4978965;28;1567;-83
2023/10/26 11:27:14;;;;;;;;;;;11.50;99.90;;;11.68;100.00;95700.06;4980446;28;1753;-84
2023/10/26 11:29:42;;;;;;;;;;;11.60;99.90;;;11.76;100.00;95693.44;4984456;28;1468;-83
2023/10/26 11:32:18;;;;;;;;;;;11.70;99.90;;;11.84;100.00;95685.88;4993068;28;1405;-85
2023/10/26 11:35:13;;;;;;;;;;;11.70;99.90;;;11.62;100.00;95684.09;4994357;28;1497;-84
2023/10/26 11:37:43;;;;;;;;;;;11.80;99.90;;;11.67;100.00;95693.19;4961617;28;1427;-84
2023/10/26 11:40:11;;;;;;;;;;;11.80;99.90;;;11.70;100.00;95679.16;4985562;28;1928;-82